Flight Track Log - Related Links

Times and Time Zones

All times are in EDT time to prevent confusion due to time zone crossing. See the FFT403 flight status page for this flight to view local times or setup timezone preferences in your user account.

Time Position Orientation Groundspeed Altitude Reporting Facility
EDT Latitude Longitude Course Direction KTS MPH feet Rate Location/Type
Fri 07:12:15 AM 41.8167 -87.7333 262° West 152 175 2,200  Level Chicago TRACON
Fri 07:14:16 AM 41.8000 -87.9000 262° West 230 265 6,900 2,027 Climbing Chicago TRACON
Fri 07:14:43 AM 41.8050 -87.9158 293° West 219 252 7,200 2,659 Climbing Chicago Center
Fri 07:15:44 AM 41.8089 -88.0472 272° West 297 342 10,800 3,246 Climbing Chicago Center
Fri 07:16:45 AM 41.8139 -88.1553 274° West 295 339 13,800 2,754 Climbing Chicago Center
Fri 07:17:46 AM 41.8181 -88.2656 273° West 300 345 16,400 2,410 Climbing Chicago Center
Fri 07:18:47 AM 41.8244 -88.3822 274° West 312 359 18,700 2,164 Climbing Chicago Center
Fri 07:19:48 AM 41.8294 -88.5022 273° West 323 372 20,800 1,967 Climbing Chicago Center
Fri 07:20:49 AM 41.8197 -88.6292 264° West 342 394 22,700 1,967 Climbing Chicago Center
Fri 07:21:50 AM 41.8092 -88.7558 264° West 346 398 24,800 1,869 Climbing Chicago Center
Fri 07:22:51 AM 41.7986 -88.8878 264° West 356 410 26,500 1,869 Climbing Chicago Center
Fri 07:23:52 AM 41.7875 -89.0503 265° West 366 421 28,600 1,820 Climbing Chicago Center
Fri 07:24:53 AM 41.7836 -89.1906 268° West 375 432 30,200 1,623 Climbing Chicago Center
Fri 07:25:54 AM 41.7794 -89.3319 268° West 381 438 31,900 1,623 Climbing Chicago Center
Fri 07:26:55 AM 41.7742 -89.4719 267° West 379 436 33,500 1,220 Climbing Chicago Center
Fri 07:27:57 AM 41.7667 -89.6119 266° West 380 437 34,400 976 Climbing Chicago Center
Fri 07:28:58 AM 41.7611 -89.7558 267° West 386 444 35,500 787 Climbing Chicago Center
Fri 07:29:59 AM 41.7556 -89.8969 267° West 384 442 36,000 246 Climbing Chicago Center
Fri 07:31:00 AM 41.7489 -90.0406 266° West 386 444 36,000  Level Chicago Center
Fri 07:32:02 AM 41.7414 -90.1836 266° West 387 445 36,000 -49 Level Chicago Center
Fri 07:33:03 AM 41.7333 -90.3517 266° West 381 438 35,900 -49 Descending Chicago Center
Fri 07:34:04 AM 41.7269 -90.4886 266° West 374 430 35,900 49 Level Chicago Center
Fri 07:35:06 AM 41.7189 -90.6297 266° West 380 437 36,000 49 Climbing Chicago Center
Fri 07:36:07 AM 41.7114 -90.7819 266° West 385 443 36,000  Level Chicago Center
Fri 07:37:08 AM 41.7042 -90.9256 266° West 387 445 36,000  Level Chicago Center
Fri 07:38:10 AM 41.6950 -91.0692 265° West 389 448 36,000  Level Chicago Center
Fri 07:39:11 AM 41.6878 -91.2158 266° West 396 456 36,000  Level Chicago Center
Fri 07:40:12 AM 41.6792 -91.3594 265° West 393 452 36,000  Level Chicago Center
Fri 07:41:14 AM 41.6717 -91.5056 266° West 394 453 36,000 -49 Level Chicago Center
Fri 07:42:15 AM 41.6628 -91.6475 265° West 387 445 35,900 -49 Descending Chicago Center
Fri 07:43:17 AM 41.6539 -91.7903 265° West 385 443 35,900 49 Level Chicago Center
Fri 07:44:18 AM 41.6436 -91.9622 265° West 389 448 36,000 49 Climbing Chicago Center
Fri 07:45:19 AM 41.6339 -92.1053 265° West 388 447 36,000  Level Chicago Center
Fri 07:46:21 AM 41.6244 -92.2506 265° West 393 452 36,000  Level Chicago Center
Fri 07:47:22 AM 41.6150 -92.3997 265° West 402 463 36,000  Level Chicago Center
Fri 07:48:24 AM 41.6047 -92.5481 265° West 403 464 36,000  Level Chicago Center
Fri 07:49:25 AM 41.5958 -92.6947 265° West 401 461 36,000  Level Chicago Center
Fri 07:49:43 AM 41.5911 -92.7572 264° West 403 464 36,000  Level Minneapolis Center
Fri 07:50:44 AM 41.5794 -92.9028 264° West 402 463 36,000 -49 Level Minneapolis Center
Fri 07:51:45 AM 41.5697 -93.0475 265° West 400 460 35,900 -49 Descending Minneapolis Center
Fri 07:52:46 AM 41.5597 -93.1889 265° West 394 453 35,900  Level Minneapolis Center
Fri 07:53:47 AM 41.5483 -93.3344 264° West 396 456 35,900 49 Level Minneapolis Center
Fri 07:54:48 AM 41.5369 -93.4811 264° West 399 459 36,000 49 Climbing Minneapolis Center
Fri 07:55:49 AM 41.5269 -93.6244 265° West 396 456 36,000  Level Minneapolis Center
Fri 07:56:50 AM 41.5153 -93.7719 264° West 400 460 36,000  Level Minneapolis Center
Fri 07:57:50 AM 41.5025 -93.9453 264° West 397 457 36,000 -50 Level Minneapolis Center
Fri 07:58:51 AM 41.4900 -94.0867 263° West 392 451 35,900 -49 Descending Minneapolis Center
Fri 07:59:53 AM 41.4767 -94.2389 263° West 390 449 35,900 49 Level Minneapolis Center
Fri 08:00:54 AM 41.4647 -94.3833 264° West 393 452 36,000 49 Climbing Minneapolis Center
Fri 08:01:55 AM 41.4525 -94.5278 264° West 394 453 36,000  Level Minneapolis Center
Fri 08:02:56 AM 41.4408 -94.6747 264° West 398 458 36,000 -49 Level Minneapolis Center
Fri 08:03:57 AM 41.4272 -94.8208 263° West 399 459 35,900  Descending Minneapolis Center
Fri 08:04:58 AM 41.4144 -94.9686 263° West 400 460 36,000 49 Climbing Minneapolis Center
Fri 08:05:59 AM 41.4019 -95.1169 264° West 404 465 36,000  Level Minneapolis Center
Fri 08:07:00 AM 41.3886 -95.2678 263° West 408 470 36,000  Level Minneapolis Center
Fri 08:08:01 AM 41.3728 -95.4194 262° West 412 474 36,000  Level Minneapolis Center
Fri 08:09:02 AM 41.3581 -95.5728 263° West 417 480 36,000  Level Minneapolis Center
Fri 08:10:03 AM 41.3456 -95.7203 264° West 413 475 36,000  Level Minneapolis Center
Fri 08:11:04 AM 41.3275 -95.9017 263° West 412 474 36,000 -49 Level Minneapolis Center
Fri 08:12:06 AM 41.3117 -96.0525 262° West 412 474 35,900 -44 Descending Minneapolis Center
Fri 08:13:19 AM 41.2986 -96.2011 263° West 406 467 35,900 45 Level Minneapolis Center
Fri 08:14:20 AM 41.2800 -96.3728 262° West 417 480 36,000 49 Climbing Minneapolis Center
Fri 08:15:21 AM 41.2642 -96.5261 262° West 420 483 36,000  Level Minneapolis Center
Fri 08:16:22 AM 41.2472 -96.6811 262° West 422 486 36,000  Level Minneapolis Center
Fri 08:17:24 AM 41.2322 -96.8347 263° West 421 484 36,000  Level Minneapolis Center
Fri 08:18:25 AM 41.2131 -97.0169 262° West 417 480 36,000 -49 Level Minneapolis Center
Fri 08:19:26 AM 41.1961 -97.1650 261° West 410 472 35,900 -49 Descending Minneapolis Center
Fri 08:20:27 AM 41.1792 -97.3164 262° West 413 475 35,900 49 Level Minneapolis Center
Fri 08:21:29 AM 41.1642 -97.4536 262° West 417 480 36,000 49 Climbing Minneapolis Center
Fri 08:22:30 AM 41.1469 -97.6072 262° West 421 484 36,000  Level Minneapolis Center
Fri 08:23:31 AM 41.1258 -97.7936 262° West 424 488 36,000  Level Minneapolis Center
Fri 08:24:32 AM 41.1078 -97.9472 261° West 422 486 36,000  Level Minneapolis Center
Fri 08:25:34 AM 41.0897 -98.1025 261° West 424 488 36,000  Level Minneapolis Center
Fri 08:26:35 AM 41.0722 -98.2578 262° West 425 489 36,000  Level Minneapolis Center
Fri 08:27:36 AM 41.0542 -98.4125 261° West 424 488 36,000  Level Minneapolis Center
Fri 08:28:37 AM 41.0361 -98.5761 262° West 417 480 36,000  Level Minneapolis Center
Fri 08:29:39 AM 41.0194 -98.7244 262° West 410 472 36,000  Level Minneapolis Center
Fri 08:30:40 AM 41.0028 -98.8742 262° West 411 473 36,000  Level Minneapolis Center
Fri 08:31:41 AM 40.9861 -99.0247 262° West 413 475 36,000  Level Minneapolis Center
Fri 08:32:42 AM 40.9689 -99.1747 261° West 414 476 36,000  Level Minneapolis Center
Fri 08:33:11 AM 40.9608 -99.2350 260° West 414 476 36,000  Level Denver Center
Fri 08:34:12 AM 40.9381 -99.3867 259° West 418 481 36,000  Level Denver Center
Fri 08:35:13 AM 40.9161 -99.5389 259° West 419 482 36,000  Level Denver Center
Fri 08:36:14 AM 40.8939 -99.6911 259° West 421 484 36,000  Level Denver Center
Fri 08:37:15 AM 40.8700 -99.8525 259° West 417 480 36,000  Level Denver Center
Fri 08:38:16 AM 40.8456 -100.0139 259° West 405 466 36,000  Level Denver Center
Fri 08:39:16 AM 40.8239 -100.1525 258° West 403 464 36,000  Level Denver Center
Fri 08:40:17 AM 40.8033 -100.2908 259° West 402 463 36,000  Level Denver Center
Fri 08:41:18 AM 40.7789 -100.4519 259° West 401 461 36,000  Level Denver Center
Fri 08:42:19 AM 40.7575 -100.5908 259° West 400 460 36,000  Level Denver Center
Fri 08:43:20 AM 40.7342 -100.7381 258° West 414 476 36,000  Level Denver Center
Fri 08:44:21 AM 40.7103 -100.8836 258° West 416 479 36,000  Level Denver Center
Fri 08:45:22 AM 40.6847 -101.0500 259° West 414 476 36,000  Level Denver Center
Fri 08:46:23 AM 40.6611 -101.1967 258° West 427 491 36,000  Level Denver Center
Fri 08:47:24 AM 40.6369 -101.3450 258° West 432 497 36,000  Level Denver Center
Fri 08:48:25 AM 40.6094 -101.5139 258° West 424 488 36,000  Level Denver Center
Fri 08:49:26 AM 40.5867 -101.6533 258° West 409 471 36,000  Level Denver Center
Fri 08:50:27 AM 40.5594 -101.8128 257° West 400 460 36,000  Level Denver Center
Fri 08:51:28 AM 40.5367 -101.9478 258° West 396 456 36,000  Level Denver Center
Fri 08:52:29 AM 40.5133 -102.0839 257° West 398 458 36,000  Level Denver Center
Fri 08:53:30 AM 40.4878 -102.2433 258° West 400 460 36,000 -149 Level Denver Center
Fri 08:54:30 AM 40.4633 -102.3789 257° West 397 457 35,700 -595 Descending Denver Center
Fri 08:55:31 AM 40.4397 -102.5225 258° West 417 480 34,800 -1,426 Descending Denver Center
Fri 08:56:32 AM 40.4100 -102.6825 256° West 415 478 32,800 -1,918 Descending Denver Center
Fri 08:57:33 AM 40.3869 -102.8272 258° West 405 466 30,900 -1,869 Descending Denver Center
Fri 08:58:34 AM 40.3619 -102.9644 257° West 387 445 29,000 -2,098 Descending Denver Center
Fri 08:59:36 AM 40.3378 -103.0992 257° West 377 434 26,600 -2,049 Descending Denver Center
Fri 09:00:37 AM 40.3128 -103.2306 256° West 371 427 24,800 -1,770 Descending Denver Center
Fri 09:01:38 AM 40.2903 -103.3561 257° West 353 406 23,000 -1,721 Descending Denver Center
Fri 09:02:39 AM 40.2683 -103.4794 257° West 345 397 21,300 -1,623 Descending Denver Center
Fri 09:03:40 AM 40.2467 -103.5986 257° West 336 387 19,700 -1,574 Descending Denver Center
Fri 09:04:41 AM 40.2228 -103.7214 256° West 322 371 18,100 -1,289 Descending Denver Center
Fri 09:05:41 AM 40.2036 -103.8364 258° West 319 367 17,100 -1,041 Descending Denver Center
Fri 09:06:42 AM 40.2072 -103.9408 273° West 293 337 16,000 -1,131 Descending Denver Center
Fri 09:07:43 AM 40.2189 -104.0508 278° West 304 350 14,800 -1,131 Descending Denver Center
Fri 09:08:44 AM 40.2283 -104.1550 277° West 294 338 13,700 -984 Descending Denver Center
Fri 09:09:45 AM 40.2358 -104.2369 277° West 276 318 12,800 -885 Descending Denver Center
Fri 09:10:46 AM 40.2350 -104.3458 269° West 247 284 11,900 -1,033 Descending Denver Center
Fri 09:11:47 AM 40.2194 -104.4311 257° West 240 276 10,700 -984 Descending Denver Center
Fri 09:12:48 AM 40.2047 -104.5172 257° West 242 278 9,900 -738 Descending Denver Center
Fri 09:13:49 AM 40.1756 -104.5806 239° Southwest 250 288 9,200 -738 Descending Denver Center
Fri 09:14:50 AM 40.0997 -104.6361 209° Southwest 254 292 8,400 -639 Descending Denver Center
Fri 09:15:51 AM 40.0425 -104.6697 204° Southwest 230 265 7,900 -590 Descending Denver Center
Fri 09:16:52 AM 39.9911 -104.6867 194° South 195 224 7,200 -787 Descending Denver Center
Fri 09:17:53 AM 39.9428 -104.6872 181° South 175 201 6,300 -836 Descending Denver Center
Fri 09:18:54 AM 39.9036 -104.6867 179° South 144 166 5,500 -787 Descending Denver Center
Fri 09:20:00 AM 39.8617 -104.6732 190° South  Level Estimated
Fri 09:27:00 AM 39.8617 -104.6732 190° South  Level Estimated
Fri 09:28:00 AM 39.8617 -104.6732 190° South  Level Estimated
Fri 09:29:00 AM 39.8617 -104.6732 190° South  Level Estimated
Fri 09:30:00 AM 39.8617 -104.6732 190° South  Level Estimated

Login

Don't have an account? Register now (free) for customized features, flight alerts, and more!